Time;durP1;ratioP1;P1;durP2;ratioP2;P2;SDS_P1;SDS_P2;PMS_P1;PMS_P2;Temp;Humidity;BMP_temperature;BMP_pressure;BME280_temperature;BME280_humidity;BME280_pressure;Samples;Min_cycle;Max_cycle;Signal;HPM_P1;HPM_P2
2021/12/01 00:00:33;;;;;;;3.13;1.90;;;;;;;-3.96;76.41;98893.81;5043420;28;20056;-73
2021/12/01 00:02:58;;;;;;;1.75;1.65;;;;;;;-3.83;75.72;98878.06;5043451;28;20045;-73
2021/12/01 00:05:27;;;;;;;2.10;1.30;;;;;;;-3.96;75.52;98887.03;5043370;28;20041;-73
2021/12/01 00:07:54;;;;;;;3.00;1.98;;;;;;;-3.94;75.48;98880.34;5043083;28;20354;-73
2021/12/01 00:10:21;;;;;;;3.28;1.48;;;;;;;-3.99;75.31;98882.75;5058528;28;20489;-73
2021/12/01 00:12:47;;;;;;;3.22;1.30;;;;;;;-3.99;75.30;98887.84;5044866;28;20040;-73
2021/12/01 00:15:13;;;;;;;2.33;1.70;;;;;;;-4.09;75.61;98869.81;5047122;28;20022;-73
2021/12/01 00:17:41;;;;;;;2.67;1.50;;;;;;;-4.02;75.33;98889.44;5062278;28;20410;-73
2021/12/01 00:20:10;;;;;;;1.55;1.45;;;;;;;-4.01;75.12;98884.41;5047130;28;20024;-73
2021/12/01 00:22:36;;;;;;;5.95;2.35;;;;;;;-4.01;74.96;98884.41;5045559;28;20032;-73
2021/12/01 00:25:03;;;;;;;3.38;1.70;;;;;;;-3.96;74.78;98891.28;5045538;28;20025;-72
2021/12/01 00:27:28;;;;;;;3.60;2.15;;;;;;;-3.99;74.78;98866.69;5047038;28;20017;-72
2021/12/01 00:29:56;;;;;;;3.75;1.65;;;;;;;-3.94;74.15;98867.66;5046722;28;20576;-73
2021/12/01 00:32:21;;;;;;;1.52;1.20;;;;;;;-3.84;73.90;98867.91;5062214;28;20028;-73
2021/12/01 00:34:47;;;;;;;1.67;1.30;;;;;;;-3.87;73.61;98850.94;5062517;28;20057;-72
2021/12/01 00:37:13;;;;;;;4.22;1.85;;;;;;;-3.90;73.61;98853.41;5046499;28;20021;-72
2021/12/01 00:39:38;;;;;;;2.35;2.17;;;;;;;-3.91;73.47;98842.38;5046695;28;20025;-73
2021/12/01 00:42:04;;;;;;;1.85;1.65;;;;;;;-3.96;73.69;98840.56;5046616;28;20044;-73
2021/12/01 00:44:30;;;;;;;1.73;1.48;;;;;;;-3.95;73.74;98839.75;5046661;28;20037;-72
2021/12/01 00:47:05;;;;;;;2.80;1.55;;;;;;;-3.92;73.73;98847.41;5046537;28;20355;-73
2021/12/01 00:49:33;;;;;;;1.70;1.30;;;;;;;-4.09;73.95;98830.13;5061840;28;20022;-73
2021/12/01 00:51:58;;;;;;;2.08;1.40;;;;;;;-4.09;74.07;98822.53;5046687;28;20048;-73
2021/12/01 00:54:24;;;;;;;2.60;1.67;;;;;;;-4.02;73.91;98838.72;5061688;28;20029;-73
2021/12/01 00:56:49;;;;;;;2.22;1.48;;;;;;;-4.03;74.20;98844.63;5046826;28;20029;-72
2021/12/01 00:59:16;;;;;;;1.25;1.10;;;;;;;-4.16;74.53;98825.69;5046526;28;20022;-75
2021/12/01 01:01:42;;;;;;;5.68;1.10;;;;;;;-4.12;74.53;98823.28;5046503;28;20071;-75
2021/12/01 01:04:08;;;;;;;5.20;3.20;;;;;;;-4.15;74.30;98818.13;5046586;28;20026;-75
2021/12/01 01:06:33;;;;;;;4.30;1.65;;;;;;;-4.13;74.47;98820.72;5046330;28;20026;-75
2021/12/01 01:09:00;;;;;;;2.65;1.20;;;;;;;-4.18;74.54;98819.72;5045928;28;20021;-75
2021/12/01 01:16:54;;;;;;;2.92;1.38;;;;;;;-4.34;75.33;98821.03;5045966;28;20125;-74
2021/12/01 01:19:20;;;;;;;1.02;0.85;;;;;;;-4.28;75.46;98822.03;5046176;28;20025;-74
2021/12/01 01:21:50;;;;;;;3.65;1.55;;;;;;;-4.27;75.48;98823.78;5046108;28;20029;-74
2021/12/01 01:24:16;;;;;;;2.03;1.10;;;;;;;-4.18;75.01;98822.25;5044678;28;20113;-74
2021/12/01 01:26:43;;;;;;;1.20;1.10;;;;;;;-4.17;75.07;98811.31;5046054;28;20026;-74
2021/12/01 01:29:08;;;;;;;1.65;1.20;;;;;;;-4.17;74.91;98809.63;5045778;28;20049;-74
2021/12/01 01:31:34;;;;;;;1.65;1.10;;;;;;;-4.13;74.83;98791.16;5045824;28;20118;-74
2021/12/01 01:34:00;;;;;;;2.90;1.80;;;;;;;-4.05;74.77;98806.56;5045918;28;20029;-74
2021/12/01 01:36:27;;;;;;;1.05;0.82;;;;;;;-4.18;75.16;98807.06;5045783;28;20029;-74
2021/12/01 01:38:53;;;;;;;1.63;1.33;;;;;;;-4.17;75.54;98804.56;5045675;28;20040;-74
2021/12/01 01:41:19;;;;;;;2.20;1.80;;;;;;;-4.12;75.43;98802.16;5045986;28;20026;-74
2021/12/01 01:43:46;;;;;;;5.72;1.40;;;;;;;-4.05;75.43;98796.41;5045823;28;20025;-72
2021/12/01 01:46:13;;;;;;;4.57;1.60;;;;;;;-4.07;75.77;98787.91;5046079;28;20021;-72
2021/12/01 01:48:55;;;;;;;2.03;1.33;;;;;;;-4.08;75.76;98786.22;5045588;28;20029;-72
2021/12/01 01:51:24;;;;;;;0.93;0.93;;;;;;;-3.98;75.63;98798.28;5060879;28;20105;-72
2021/12/01 01:53:53;;;;;;;1.10;1.00;;;;;;;-4.06;76.06;98791.31;5045050;28;20022;-72
2021/12/01 01:56:19;;;;;;;1.50;1.40;;;;;;;-3.96;76.10;98787.31;5060722;28;20478;-73
2021/12/01 01:58:45;;;;;;;4.28;1.50;;;;;;;-4.08;76.43;98781.13;5045297;28;20052;-72
2021/12/01 02:01:20;;;;;;;1.20;1.08;;;;;;;-4.20;76.92;98774.06;5045412;28;20029;-72
2021/12/01 02:03:47;;;;;;;2.95;1.58;;;;;;;-4.31;77.42;98763.66;5060378;28;20014;-73
2021/12/01 02:06:21;;;;;;;5.85;2.35;;;;;;;-4.32;77.43;98759.44;5045260;28;20021;-72
2021/12/01 02:08:47;;;;;;;0.75;0.75;;;;;;;-4.30;77.71;98752.72;5044909;28;20454;-73
2021/12/01 02:11:12;;;;;;;1.95;1.67;;;;;;;-4.20;77.46;98742.81;5045379;28;20029;-72
2021/12/01 02:13:39;;;;;;;3.35;1.65;;;;;;;-4.09;77.23;98749.00;5045055;28;20021;-72
2021/12/01 02:16:05;;;;;;;1.10;0.80;;;;;;;-4.07;77.37;98737.22;5045109;28;20025;-72
2021/12/01 02:18:30;;;;;;;1.95;1.20;;;;;;;-3.91;77.27;98746.03;5044825;28;20027;-72
2021/12/01 02:21:01;;;;;;;1.55;1.25;;;;;;;-3.95;77.83;98736.66;5044998;28;20017;-72
2021/12/01 02:23:27;;;;;;;1.92;1.40;;;;;;;-3.92;77.47;98733.31;5059636;28;20029;-72
2021/12/01 02:25:53;;;;;;;1.38;1.27;;;;;;;-3.88;77.60;98740.16;5060122;28;20037;-72
2021/12/01 02:28:19;;;;;;;4.43;1.75;;;;;;;-3.82;77.18;98722.59;5044589;28;20036;-72
2021/12/01 02:30:44;;;;;;;2.55;1.52;;;;;;;-3.81;77.07;98726.81;5059721;28;20067;-72
2021/12/01 02:33:10;;;;;;;3.70;1.42;;;;;;;-3.86;77.16;98721.66;5044540;28;20022;-72
2021/12/01 02:35:35;;;;;;;1.65;1.33;;;;;;;-3.90;77.53;98732.53;5044707;28;20060;-72
2021/12/01 02:38:03;;;;;;;2.25;1.00;;;;;;;-3.90;77.17;98736.75;5044256;28;20089;-72
2021/12/01 02:40:28;;;;;;;4.50;2.42;;;;;;;-3.96;77.35;98729.84;5044529;28;20032;-72
2021/12/01 02:42:54;;;;;;;1.45;1.10;;;;;;;-3.97;77.70;98730.69;5044766;28;20030;-72
2021/12/01 02:45:19;;;;;;;1.17;1.08;;;;;;;-4.05;77.72;98722.91;5044280;28;20029;-72
2021/12/01 02:47:45;;;;;;;1.73;0.93;;;;;;;-3.96;77.97;98740.00;5044313;28;20029;-73
2021/12/01 02:50:11;;;;;;;1.13;0.80;;;;;;;-3.99;78.03;98730.66;5044199;28;20025;-72
2021/12/01 02:52:36;;;;;;;1.73;1.20;;;;;;;-4.09;78.59;98723.66;5044246;28;20048;-72
2021/12/01 02:55:07;;;;;;;1.45;1.27;;;;;;;-4.13;79.05;98727.78;5044304;28;20017;-72
2021/12/01 02:57:53;;;;;;;1.90;1.73;;;;;;;-4.10;79.00;98724.47;5044026;28;20033;-71
2021/12/01 03:00:21;;;;;;;4.00;1.50;;;;;;;-4.08;78.98;98710.16;5043610;28;20033;-72
2021/12/01 03:02:47;;;;;;;2.45;1.13;;;;;;;-4.06;78.92;98711.06;5043915;28;20059;-72
2021/12/01 03:05:15;;;;;;;1.25;1.15;;;;;;;-4.14;79.18;98704.94;5044068;28;20026;-72
2021/12/01 03:07:42;;;;;;;1.08;0.98;;;;;;;-4.08;79.17;98700.03;5043672;28;20446;-72
2021/12/01 03:10:08;;;;;;;1.55;1.20;;;;;;;-4.20;79.46;98702.28;5059316;28;20033;-72
2021/12/01 03:12:35;;;;;;;2.30;1.55;;;;;;;-4.18;79.49;98703.16;5043785;28;20021;-73
2021/12/01 03:15:01;;;;;;;2.67;1.90;;;;;;;-4.16;79.76;98697.31;5043749;28;20032;-73
2021/12/01 03:17:29;;;;;;;3.22;1.70;;;;;;;-4.26;79.89;98701.28;5043857;28;20021;-72
2021/12/01 03:19:55;;;;;;;2.60;1.55;;;;;;;-4.23;79.69;98700.50;5058470;28;20049;-73
2021/12/01 03:22:21;;;;;;;5.68;2.22;;;;;;;-4.29;79.94;98690.22;5042943;28;20027;-72
2021/12/01 03:24:47;;;;;;;2.90;1.40;;;;;;;-4.24;79.90;98686.13;5058853;28;20026;-72
2021/12/01 03:27:13;;;;;;;4.68;1.90;;;;;;;-4.32;80.06;98680.88;5043244;28;20100;-72
2021/12/01 03:29:38;;;;;;;3.28;1.92;;;;;;;-4.34;79.98;98674.91;5043179;28;20556;-72
2021/12/01 03:32:06;;;;;;;3.13;2.05;;;;;;;-4.26;79.87;98675.94;5041908;28;20104;-72
2021/12/01 03:34:33;;;;;;;2.63;1.73;;;;;;;-4.34;79.96;98661.41;5043274;28;20446;-71
2021/12/01 03:36:59;;;;;;;2.78;1.80;;;;;;;-4.29;79.97;98670.81;5043147;28;20029;-72
2021/12/01 03:39:25;;;;;;;1.63;1.15;;;;;;;-4.31;80.11;98654.72;5042910;28;20048;-72
2021/12/01 03:41:50;;;;;;;2.05;1.17;;;;;;;-4.30;80.33;98653.91;5043117;28;20029;-72
2021/12/01 03:44:16;;;;;;;4.45;1.70;;;;;;;-4.27;80.25;98648.03;5043179;28;20077;-72
2021/12/01 03:46:41;;;;;;;2.60;1.52;;;;;;;-4.15;79.57;98647.44;5042710;28;20032;-72
2021/12/01 03:49:07;;;;;;;2.10;1.27;;;;;;;-4.20;79.68;98654.94;5042909;28;20025;-72
2021/12/01 03:51:32;;;;;;;2.03;1.30;;;;;;;-4.38;80.16;98643.56;5058201;28;20048;-72
2021/12/01 03:53:57;;;;;;;2.15;1.40;;;;;;;-4.27;79.89;98651.44;5042684;28;20091;-72
2021/12/01 03:56:23;;;;;;;3.55;1.48;;;;;;;-4.19;79.88;98653.28;5043305;28;20081;-72
2021/12/01 03:58:48;;;;;;;4.18;1.55;;;;;;;-4.32;79.68;98627.66;5042883;28;20033;-72
2021/12/01 04:01:14;;;;;;;0.75;0.75;;;;;;;-4.28;80.14;98634.50;5043007;28;20026;-72
2021/12/01 04:03:40;;;;;;;6.22;2.33;;;;;;;-4.27;80.15;98631.19;5042949;28;20025;-72
2021/12/01 04:06:05;;;;;;;5.35;1.80;;;;;;;-4.31;80.55;98629.38;5042868;28;20021;-72
2021/12/01 04:08:32;;;;;;;5.15;1.95;;;;;;;-4.29;80.62;98611.66;5057786;28;20048;-72
2021/12/01 04:10:58;;;;;;;3.70;2.05;;;;;;;-4.40;80.69;98584.44;5042641;28;20048;-72
2021/12/01 04:13:23;;;;;;;3.05;1.70;;;;;;;-4.30;80.53;98597.28;5042970;28;20112;-72
2021/12/01 04:15:48;;;;;;;5.88;3.10;;;;;;;-4.40;80.69;98574.28;5042962;28;20018;-72
2021/12/01 04:18:14;;;;;;;4.80;2.08;;;;;;;-4.43;80.35;98574.22;5042733;28;20036;-73
2021/12/01 04:20:40;;;;;;;3.30;1.67;;;;;;;-4.33;80.30;98600.63;5042938;28;20030;-72
2021/12/01 04:23:06;;;;;;;3.78;2.00;;;;;;;-4.30;80.08;98603.22;5042578;28;20061;-73
2021/12/01 04:25:32;;;;;;;5.80;1.90;;;;;;;-4.35;80.11;98602.25;5042782;28;20449;-72
2021/12/01 04:27:58;;;;;;;1.98;1.73;;;;;;;-4.42;80.23;98580.13;5058022;28;20017;-72
2021/12/01 04:30:25;;;;;;;3.20;2.08;;;;;;;-4.40;80.58;98588.63;5042578;28;20073;-71
2021/12/01 04:32:52;;;;;;;6.03;2.22;;;;;;;-4.28;80.57;98593.13;5042716;28;20025;-72
2021/12/01 04:35:19;;;;;;;2.40;1.48;;;;;;;-4.30;80.39;98580.44;5042543;28;20508;-72
2021/12/01 04:37:46;;;;;;;5.03;2.28;;;;;;;-4.17;80.26;98595.91;5040977;28;20037;-72
2021/12/01 04:40:12;;;;;;;1.98;1.67;;;;;;;-4.15;79.96;98584.97;5041348;28;20039;-72
2021/12/01 04:42:38;;;;;;;3.35;2.22;;;;;;;-4.19;80.06;98579.78;5042466;28;20025;-72
2021/12/01 04:45:08;;;;;;;5.40;1.60;;;;;;;-4.09;80.02;98593.53;5041135;28;20024;-72
2021/12/01 04:47:38;;;;;;;4.45;1.90;;;;;;;-4.11;80.20;98590.97;5042561;28;20032;-72
2021/12/01 04:50:05;;;;;;;3.00;1.80;;;;;;;-4.06;80.08;98594.44;5042710;28;20020;-72
2021/12/01 04:52:30;;;;;;;3.00;2.00;;;;;;;-4.04;80.07;98591.94;5057568;28;20073;-72
2021/12/01 04:54:56;;;;;;;5.15;1.95;;;;;;;-4.11;80.14;98581.69;5042717;28;20021;-73
2021/12/01 04:57:21;;;;;;;4.45;1.90;;;;;;;-4.18;80.04;98551.94;5042700;28;20462;-73
2021/12/01 04:59:47;;;;;;;3.58;2.20;;;;;;;-3.98;80.28;98592.06;5043820;28;20104;-73
2021/12/01 05:02:12;;;;;;;5.03;2.58;;;;;;;-3.94;80.18;98588.78;5061208;28;20026;-72
2021/12/01 05:04:40;;;;;;;3.38;1.77;;;;;;;-4.03;80.10;98579.31;5045542;28;20064;-71
2021/12/01 05:07:05;;;;;;;4.38;2.13;;;;;;;-4.08;80.00;98558.06;5045739;28;20024;-71
2021/12/01 05:09:31;;;;;;;2.22;1.50;;;;;;;-3.96;79.86;98575.19;5045650;28;20112;-71
2021/12/01 05:11:56;;;;;;;3.22;1.52;;;;;;;-3.88;79.71;98581.28;5046047;28;20053;-71
2021/12/01 05:14:24;;;;;;;1.17;1.08;;;;;;;-3.78;79.63;98582.34;5046017;28;20079;-72
2021/12/01 05:16:49;;;;;;;1.85;1.13;;;;;;;-3.89;79.73;98568.56;5045964;28;20048;-72
2021/12/01 05:19:14;;;;;;;3.35;2.28;;;;;;;-3.76;78.93;98562.06;5045980;28;20029;-72
2021/12/01 05:21:41;;;;;;;3.78;1.42;;;;;;;-3.74;79.28;98562.97;5046109;28;20373;-72
2021/12/01 05:24:07;;;;;;;2.53;1.70;;;;;;;-3.84;79.35;98551.78;5045744;28;20032;-72
2021/12/01 05:26:32;;;;;;;1.23;1.13;;;;;;;-3.62;79.13;98560.66;5045727;28;20108;-71
2021/12/01 05:28:58;;;;;;;2.55;2.28;;;;;;;-3.56;78.51;98557.38;5045663;28;20060;-68
2021/12/01 05:31:23;;;;;;;1.88;1.42;;;;;;;-3.54;78.54;98553.19;5045775;28;20022;-68
2021/12/01 05:33:49;;;;;;;3.42;1.90;;;;;;;-3.52;78.46;98554.09;5045535;28;20054;-66
2021/12/01 05:36:15;;;;;;;9.23;1.75;;;;;;;-3.48;78.28;98549.91;5045742;28;20067;-71
2021/12/01 05:38:40;;;;;;;2.25;1.25;;;;;;;-3.61;78.51;98537.00;5045458;28;20026;-71
2021/12/01 05:41:06;;;;;;;1.65;1.38;;;;;;;-3.69;78.54;98517.41;5061000;28;20029;-71
2021/12/01 05:43:31;;;;;;;5.28;1.65;;;;;;;-3.57;78.70;98537.06;5045542;28;20333;-70
2021/12/01 05:45:57;;;;;;;3.55;2.15;;;;;;;-3.53;78.35;98541.38;5045225;28;20021;-71
2021/12/01 05:48:22;;;;;;;1.42;1.17;;;;;;;-3.67;78.25;98503.03;5045160;28;20032;-72
2021/12/01 05:50:48;;;;;;;3.20;2.05;;;;;;;-3.55;78.43;98538.81;5045093;28;20033;-68
2021/12/01 05:53:13;;;;;;;1.45;1.23;;;;;;;-3.55;78.53;98537.94;5044718;28;20093;-71
2021/12/01 05:55:40;;;;;;;3.53;1.75;;;;;;;-3.53;78.42;98534.59;5043150;28;20033;-71
2021/12/01 05:58:06;;;;;;;3.60;1.48;;;;;;;-3.50;78.20;98518.59;5044687;28;20072;-71
2021/12/01 06:00:31;;;;;;;2.35;1.17;;;;;;;-3.40;77.76;98535.69;5044747;28;20049;-73
2021/12/01 06:02:57;;;;;;;3.03;1.50;;;;;;;-3.43;78.09;98522.94;5044780;28;20049;-74
2021/12/01 06:05:22;;;;;;;4.07;1.42;;;;;;;-3.33;77.48;98531.56;5043606;28;20021;-72
2021/12/01 06:07:48;;;;;;;6.97;1.45;;;;;;;-3.27;77.32;98521.53;5044477;28;20036;-72
2021/12/01 06:10:15;;;;;;;2.25;1.33;;;;;;;-3.29;77.45;98527.41;5044457;28;20029;-71
2021/12/01 06:12:42;;;;;;;1.88;1.20;;;;;;;-3.25;77.41;98524.94;5044533;28;20264;-71
2021/12/01 06:15:08;;;;;;;4.90;1.85;;;;;;;-3.30;76.91;98508.78;5044662;28;20029;-72
2021/12/01 06:17:34;;;;;;;2.67;1.50;;;;;;;-3.25;76.95;98519.88;5044507;28;20075;-73
2021/12/01 06:20:00;;;;;;;2.45;1.55;;;;;;;-3.22;76.81;98519.06;5059761;28;20489;-72
2021/12/01 06:22:25;;;;;;;3.70;2.05;;;;;;;-3.26;75.74;98500.38;5044260;28;20088;-74
2021/12/01 06:24:50;;;;;;;2.92;1.25;;;;;;;-3.24;74.99;98508.03;5043827;28;20029;-70
2021/12/01 06:27:16;;;;;;;2.53;1.50;;;;;;;-3.27;75.00;98511.38;5042778;28;20335;-70
2021/12/01 06:29:41;;;;;;;1.42;1.23;;;;;;;-3.58;75.47;98490.56;5043775;28;20148;-70
2021/12/01 06:32:06;;;;;;;0.93;0.85;;;;;;;-3.36;75.08;98501.06;5042671;28;20068;-70
2021/12/01 06:34:32;;;;;;;6.68;2.00;;;;;;;-3.57;75.58;98504.06;5043940;28;20018;-70
2021/12/01 06:36:57;;;;;;;4.47;1.25;;;;;;;-3.70;76.07;98485.25;5059160;28;20025;-70
2021/12/01 06:39:22;;;;;;;3.38;1.85;;;;;;;-3.71;76.49;98479.34;5043565;28;20033;-71
2021/12/01 06:41:48;;;;;;;3.08;1.42;;;;;;;-3.81;76.67;98467.28;5059162;28;20033;-70
2021/12/01 06:44:14;;;;;;;4.03;1.65;;;;;;;-3.70;76.79;98478.50;5058880;28;20099;-70
2021/12/01 06:46:40;;;;;;;2.22;1.08;;;;;;;-3.52;75.90;98467.84;5043874;28;20021;-70
2021/12/01 06:49:05;;;;;;;1.60;1.45;;;;;;;-3.73;76.26;98455.63;5042130;28;20029;-70
2021/12/01 06:51:30;;;;;;;2.08;1.55;;;;;;;-3.70;76.20;98454.81;5043847;28;20037;-70
2021/12/01 06:53:56;;;;;;;1.83;1.48;;;;;;;-3.66;76.33;98457.41;5043406;28;20014;-69
2021/12/01 06:56:22;;;;;;;5.10;1.70;;;;;;;-3.68;76.46;98455.69;5058855;28;20457;-69
2021/12/01 06:58:48;;;;;;;2.05;1.45;;;;;;;-3.56;75.80;98437.31;5043432;28;20018;-69
2021/12/01 07:01:13;;;;;;;2.22;1.63;;;;;;;-3.69;75.82;98416.78;5043479;28;20180;-69
2021/12/01 07:03:39;;;;;;;3.38;1.33;;;;;;;-3.56;76.12;98442.38;5042193;28;20097;-73
2021/12/01 07:06:05;;;;;;;2.95;1.92;;;;;;;-3.67;76.23;98409.19;5043705;28;20045;-74
2021/12/01 07:08:31;;;;;;;3.92;2.00;;;;;;;-3.66;75.67;98401.63;5041927;28;20075;-75
2021/12/01 07:10:57;;;;;;;1.83;1.10;;;;;;;-3.69;75.95;98404.09;5042937;28;20034;-76
2021/12/01 07:13:22;;;;;;;1.10;1.00;;;;;;;-3.43;76.01;98418.03;5043318;28;20039;-77
2021/12/01 07:15:48;;;;;;;3.53;1.60;;;;;;;-3.54;75.91;98416.19;5041921;28;20451;-75
2021/12/01 07:18:13;;;;;;;1.00;1.00;;;;;;;-3.19;74.40;98402.34;5044003;28;20120;-76
2021/12/01 07:20:39;;;;;;;2.30;1.45;;;;;;;-3.40;74.25;98401.19;5043562;28;20025;-76
2021/12/01 07:23:07;;;;;;;1.27;1.10;;;;;;;-3.43;74.51;98407.91;5042494;28;20037;-76
2021/12/01 07:25:33;;;;;;;3.42;1.70;;;;;;;-3.61;75.22;98415.25;5043589;28;20097;-75
2021/12/01 07:27:59;;;;;;;1.95;1.05;;;;;;;-3.58;75.36;98404.31;5043161;28;20067;-77
2021/12/01 07:30:24;;;;;;;1.13;0.90;;;;;;;-3.82;75.54;98361.63;5043151;28;20054;-77
2021/12/01 07:32:50;;;;;;;3.28;1.42;;;;;;;-3.83;76.10;98401.34;5043450;28;20040;-77
2021/12/01 07:35:17;;;;;;;1.52;1.13;;;;;;;-3.84;76.53;98404.72;5058186;28;20014;-76
2021/12/01 07:37:43;;;;;;;2.22;1.67;;;;;;;-3.67;75.63;98389.78;5058145;28;20025;-74
2021/12/01 07:40:10;;;;;;;2.25;1.50;;;;;;;-3.80;76.37;98403.94;5043194;28;20020;-74
2021/12/01 07:42:36;;;;;;;5.47;1.52;;;;;;;-3.86;76.66;98389.47;5043130;28;20064;-75
2021/12/01 07:45:04;;;;;;;1.58;1.27;;;;;;;-3.78;76.44;98382.00;5043118;28;20163;-75
2021/12/01 07:47:31;;;;;;;3.60;1.92;;;;;;;-3.84;75.83;98354.00;5058527;28;20025;-76
2021/12/01 07:49:56;;;;;;;1.02;0.93;;;;;;;-3.68;75.54;98339.03;5043206;28;20035;-75
2021/12/01 07:52:21;;;;;;;4.35;1.73;;;;;;;-3.75;75.91;98356.69;5058266;28;20026;-75
2021/12/01 07:54:47;;;;;;;4.03;1.63;;;;;;;-3.91;76.44;98340.34;5058537;28;20041;-75
2021/12/01 07:57:14;;;;;;;2.00;1.33;;;;;;;-3.73;76.08;98369.38;5043440;28;20095;-75
2021/12/01 07:59:40;;;;;;;1.20;1.13;;;;;;;-3.75;76.43;98354.16;5043171;28;20030;-75
2021/12/01 08:02:05;;;;;;;2.22;1.10;;;;;;;-3.64;76.48;98368.66;5043380;28;20059;-75
2021/12/01 08:04:31;;;;;;;2.42;1.25;;;;;;;-3.71;76.39;98362.66;5043162;28;20017;-75
2021/12/01 08:06:56;;;;;;;3.00;1.85;;;;;;;-3.65;76.38;98382.19;5043106;28;20021;-76
2021/12/01 08:09:23;;;;;;;2.40;1.38;;;;;;;-3.50;75.59;98374.81;5041661;28;20025;-75
2021/12/01 08:11:49;;;;;;;11.90;1.85;;;;;;;-3.43;75.33;98355.47;5043038;28;20116;-76
2021/12/01 08:14:14;;;;;;;3.53;1.42;;;;;;;-3.50;74.84;98343.53;5041673;28;20481;-74
2021/12/01 08:16:40;;;;;;;2.47;1.50;;;;;;;-3.51;75.44;98351.97;5043143;28;20021;-74
2021/12/01 08:19:05;;;;;;;2.95;1.65;;;;;;;-3.52;74.96;98350.25;5058265;28;20033;-75
2021/12/01 08:21:32;;;;;;;1.42;1.00;;;;;;;-3.43;74.24;98350.41;5059374;28;20021;-75
2021/12/01 08:23:57;;;;;;;1.70;1.20;;;;;;;-3.66;74.70;98314.56;5058221;28;20026;-75
2021/12/01 08:26:23;;;;;;;1.52;1.30;;;;;;;-3.55;74.70;98337.53;5058493;28;20454;-75
2021/12/01 08:28:49;;;;;;;2.13;1.10;;;;;;;-3.63;74.49;98323.06;5058078;28;20029;-75
2021/12/01 08:31:19;;;;;;;3.38;1.70;;;;;;;-3.49;74.05;98333.41;5058836;28;20017;-77
2021/12/01 08:33:46;;;;;;;2.15;1.20;;;;;;;-3.54;74.02;98335.03;5044628;28;20033;-76
2021/12/01 08:36:13;;;;;;;1.98;1.65;;;;;;;-3.42;72.71;98319.09;5046724;28;20041;-75
2021/12/01 08:38:40;;;;;;;5.28;1.58;;;;;;;-3.61;73.44;98323.09;5046351;28;20025;-75
2021/12/01 08:41:06;;;;;;;1.77;1.00;;;;;;;-3.58;73.30;98325.66;5046436;28;20276;-75
2021/12/01 08:43:33;;;;;;;3.97;1.65;;;;;;;-3.82;73.78;98293.16;5061748;28;20017;-75
2021/12/01 08:46:00;;;;;;;2.75;1.55;;;;;;;-3.56;73.66;98308.78;5046580;28;20349;-76
2021/12/01 08:48:26;;;;;;;3.08;1.30;;;;;;;-3.64;73.28;98302.72;5061635;28;20036;-73
2021/12/01 08:50:52;;;;;;;2.42;1.10;;;;;;;-3.49;72.87;98302.09;5046380;28;20109;-75
2021/12/01 08:53:17;;;;;;;1.92;0.77;;;;;;;-3.69;72.97;98273.91;5061643;28;20053;-75
2021/12/01 08:55:45;;;;;;;1.95;1.02;;;;;;;-3.51;72.63;98281.78;5046354;28;20056;-76
2021/12/01 08:58:13;;;;;;;3.72;1.20;;;;;;;-3.54;72.33;98269.06;5046139;28;20030;-75
2021/12/01 09:00:44;;;;;;;1.75;1.05;;;;;;;-3.52;72.08;98261.47;5046248;28;20089;-74
2021/12/01 09:03:09;;;;;;;2.67;1.35;;;;;;;-3.50;72.13;98269.97;5061362;28;20517;-77
2021/12/01 09:05:35;;;;;;;1.40;1.20;;;;;;;-3.56;72.42;98268.19;5044877;28;20033;-76
2021/12/01 09:08:00;;;;;;;1.42;0.90;;;;;;;-3.65;72.30;98235.09;5061256;28;20026;-75
2021/12/01 09:10:25;;;;;;;2.00;1.17;;;;;;;-3.44;71.79;98251.44;5044656;28;20025;-75
2021/12/01 09:12:51;;;;;;;2.58;1.40;;;;;;;-3.55;71.59;98242.00;5061338;28;20494;-76
2021/12/01 09:15:16;;;;;;;2.90;1.15;;;;;;;-3.43;70.99;98238.75;5046109;28;20077;-76
2021/12/01 09:17:42;;;;;;;1.95;1.33;;;;;;;-3.40;70.79;98235.41;5045954;28;20098;-76
2021/12/01 09:20:08;;;;;;;1.40;1.10;;;;;;;-3.59;71.60;98219.94;5061151;28;20525;-76
2021/12/01 09:22:34;;;;;;;2.75;1.02;;;;;;;-3.58;71.26;98200.50;5045742;28;20025;-75
2021/12/01 09:24:59;;;;;;;7.47;1.25;;;;;;;-3.59;71.45;98217.41;5045557;28;20022;-75
2021/12/01 09:27:24;;;;;;;2.03;1.27;;;;;;;-3.75;72.02;98198.59;5045701;28;20057;-75
2021/12/01 09:29:51;;;;;;;0.82;0.82;;;;;;;-3.44;70.99;98219.31;5045350;28;20049;-77
2021/12/01 09:32:17;;;;;;;2.05;1.30;;;;;;;-3.54;71.15;98199.72;5045684;28;20029;-76
2021/12/01 09:34:44;;;;;;;1.75;1.00;;;;;;;-3.50;71.00;98204.00;5060937;28;20017;-76
2021/12/01 09:37:10;;;;;;;2.67;1.70;;;;;;;-3.54;71.31;98199.72;5060783;28;20025;-75
2021/12/01 09:39:35;;;;;;;1.27;1.00;;;;;;;-3.48;71.12;98194.72;5045312;28;20083;-76
2021/12/01 09:42:01;;;;;;;1.95;1.30;;;;;;;-3.61;70.88;98175.97;5045847;28;20025;-76
2021/12/01 09:44:28;;;;;;;1.30;1.20;;;;;;;-3.48;71.06;98176.94;5045239;28;20223;-75
2021/12/01 09:46:53;;;;;;;1.48;1.38;;;;;;;-3.23;68.93;98164.56;5045036;28;20025;-77
2021/12/01 09:49:18;;;;;;;2.50;1.73;;;;;;;-3.53;69.92;98160.84;5060694;28;20033;-71
2021/12/01 09:51:44;;;;;;;1.75;1.05;;;;;;;-3.40;69.82;98175.38;5045126;28;20022;-70
2021/12/01 09:54:09;;;;;;;1.65;1.25;;;;;;;-3.37;68.99;98170.31;5060234;28;20028;-70
2021/12/01 09:56:35;;;;;;;1.52;1.38;;;;;;;-3.47;69.53;98172.75;5045230;28;20037;-70
2021/12/01 09:59:01;;;;;;;2.47;1.65;;;;;;;-3.52;68.85;98139.72;5060360;28;20029;-71
2021/12/01 10:01:28;;;;;;;1.75;1.10;;;;;;;-3.41;68.51;98155.91;5044975;28;20093;-70
2021/12/01 10:03:54;;;;;;;1.60;1.30;;;;;;;-3.53;69.15;98153.22;5044989;28;20025;-71
2021/12/01 10:06:24;;;;;;;3.33;1.38;;;;;;;-3.62;68.83;98137.06;5044874;28;20022;-70
2021/12/01 10:08:54;;;;;;;1.30;0.88;;;;;;;-3.62;68.73;98128.59;5059870;28;20120;-70
2021/12/01 10:11:24;;;;;;;2.55;1.50;;;;;;;-3.49;68.83;98149.88;5044776;28;20068;-70
2021/12/01 10:13:51;;;;;;;3.67;1.33;;;;;;;-3.48;68.93;98136.34;5044900;28;20092;-71
2021/12/01 10:16:18;;;;;;;1.50;1.40;;;;;;;-3.45;68.33;98136.38;5044894;28;20029;-71
2021/12/01 10:18:46;;;;;;;2.15;1.15;;;;;;;-3.51;68.13;98114.34;5044568;28;20093;-70
2021/12/01 10:21:23;;;;;;;0.80;0.80;;;;;;;-3.57;68.08;98116.81;5044469;28;20022;-70
2021/12/01 10:23:58;;;;;;;2.75;1.45;;;;;;;-3.65;67.95;98098.13;5044348;28;20287;-70
2021/12/01 10:26:29;;;;;;;2.10;1.27;;;;;;;-3.55;67.73;98105.03;5044633;28;20029;-69
2021/12/01 10:29:02;;;;;;;1.77;1.67;;;;;;;-3.51;66.98;98099.13;5044121;28;20031;-71
2021/12/01 10:31:36;;;;;;;3.50;1.17;;;;;;;-3.49;66.89;98107.63;5059775;28;20088;-70
2021/12/01 10:34:23;;;;;;;1.42;0.95;;;;;;;-3.63;67.37;98078.72;5044435;28;20021;-71
2021/12/01 10:40:15;;;;;;;0.88;0.80;;;;;;;-3.54;66.76;98083.03;5044301;28;20407;-69
2021/12/01 10:43:02;;;;;;;2.25;1.05;;;;;;;-3.45;65.93;98064.53;5044401;28;20080;-69
2021/12/01 10:45:31;;;;;;;1.02;0.93;;;;;;;-3.46;66.05;98047.56;5044090;28;20057;-70
2021/12/01 10:47:58;;;;;;;1.30;1.08;;;;;;;-3.59;65.87;98018.72;5044478;28;20028;-70
2021/12/01 10:50:26;;;;;;;1.15;0.95;;;;;;;-3.22;64.85;98028.34;5044295;28;20066;-71
2021/12/01 10:53:15;;;;;;;1.13;1.02;;;;;;;-3.11;64.02;98031.84;5059104;28;20071;-74
2021/12/01 10:55:46;;;;;;;2.35;2.15;;;;;;;-3.42;64.85;98013.81;5043864;28;20025;-72
2021/12/01 10:58:12;;;;;;;1.95;1.30;;;;;;;-3.31;64.84;98041.81;5044267;28;20021;-71
2021/12/01 11:00:47;;;;;;;1.10;1.00;;;;;;;-3.26;64.70;98035.09;5043860;28;20428;-71
2021/12/01 11:03:12;;;;;;;0.93;0.80;;;;;;;-3.25;65.15;98031.72;5059006;28;20025;-71
2021/12/01 11:05:45;;;;;;;0.82;0.75;;;;;;;-3.13;63.75;98056.38;5043842;28;20522;-69
2021/12/01 11:08:12;;;;;;;1.25;0.95;;;;;;;-3.17;64.40;98054.63;5043590;28;20029;-72
2021/12/01 11:10:39;;;;;;;1.00;0.90;;;;;;;-3.25;64.91;98034.25;5042619;28;20082;-71
2021/12/01 11:13:05;;;;;;;1.67;1.20;;;;;;;-3.28;65.49;98035.09;5043947;28;20295;-71
2021/12/01 11:15:39;;;;;;;2.90;0.93;;;;;;;-3.17;64.77;98026.72;5043944;28;20097;-71
2021/12/01 11:18:06;;;;;;;2.75;1.10;;;;;;;-3.27;64.76;97998.72;5058948;28;20025;-69
2021/12/01 11:20:39;;;;;;;1.30;1.20;;;;;;;-3.28;64.86;98007.19;5043685;28;20064;-70
2021/12/01 11:23:11;;;;;;;1.35;1.25;;;;;;;-3.12;64.81;97998.00;5043561;28;20021;-72
2021/12/01 11:25:38;;;;;;;1.58;1.00;;;;;;;-3.13;64.31;97990.38;5043796;28;20025;-71
2021/12/01 11:28:08;;;;;;;2.20;0.93;;;;;;;-3.21;64.69;97989.47;5058939;28;20057;-71
2021/12/01 11:30:37;;;;;;;2.25;1.17;;;;;;;-3.08;64.17;97983.63;5043437;28;20041;-72
2021/12/01 11:33:03;;;;;;;2.70;0.95;;;;;;;-3.23;64.66;97984.38;5043530;28;20039;-70
2021/12/01 11:35:29;;;;;;;2.83;1.20;;;;;;;-3.25;64.57;97983.50;5043112;28;20018;-71
2021/12/01 11:37:55;;;;;;;1.48;0.85;;;;;;;-3.31;64.99;97974.16;5043081;28;20041;-70
2021/12/01 11:40:29;;;;;;;1.83;1.10;;;;;;;-3.27;65.38;97980.09;5043386;28;20052;-70